Time;durP1;ratioP1;P1;durP2;ratioP2;P2;SDS_P1;SDS_P2;PMS_P1;PMS_P2;Temp;Humidity;BMP_temperature;BMP_pressure;BME280_temperature;BME280_humidity;BME280_pressure;Samples;Min_cycle;Max_cycle;Signal;HPM_P1;HPM_P2
2021/05/16 00:00:44;;;;;;;8.90;8.60;;;24.50;63.70;;;;;;3564560;40;20525;-55
2021/05/16 00:03:11;;;;;;;9.07;8.77;;;24.60;63.80;;;;;;3564849;40;20468;-55
2021/05/16 00:05:38;;;;;;;8.93;8.63;;;24.50;63.60;;;;;;3565070;40;20261;-51
2021/05/16 00:08:06;;;;;;;8.97;8.60;;;24.50;63.30;;;;;;3564567;40;20894;-51
2021/05/16 00:10:34;;;;;;;9.13;8.83;;;24.60;63.40;;;;;;3564533;40;20491;-54
2021/05/16 00:13:01;;;;;;;9.30;8.90;;;24.50;63.10;;;;;;3564441;40;20493;-52
2021/05/16 00:15:30;;;;;;;8.97;8.60;;;24.60;63.20;;;;;;3555771;40;20478;-52
2021/05/16 00:18:00;;;;;;;9.33;8.83;;;24.60;63.20;;;;;;3555464;40;20526;-53
2021/05/16 00:20:29;;;;;;;9.30;8.90;;;24.50;63.10;;;;;;3555165;40;20716;-55
2021/05/16 00:22:57;;;;;;;9.07;8.77;;;24.60;63.10;;;;;;3554430;40;20488;-54
2021/05/16 00:25:27;;;;;;;9.20;8.60;;;24.60;63.00;;;;;;3554225;40;20851;-52
2021/05/16 00:27:55;;;;;;;9.00;8.70;;;24.60;63.20;;;;;;3554084;40;20245;-55
2021/05/16 00:30:27;;;;;;;10.10;9.40;;;24.60;63.30;;;;;;3554868;40;20609;-52
2021/05/16 00:32:56;;;;;;;10.23;9.73;;;24.60;63.10;;;;;;3555735;40;20489;-52
2021/05/16 00:35:26;;;;;;;9.13;8.83;;;24.60;63.20;;;;;;3554481;40;20487;-53
2021/05/16 00:38:02;;;;;;;9.33;9.03;;;24.60;63.00;;;;;;3553768;40;20485;-51
2021/05/16 00:40:32;;;;;;;9.20;8.90;;;24.60;62.80;;;;;;3554371;40;20503;-54
2021/05/16 00:42:59;;;;;;;8.80;8.50;;;24.60;62.90;;;;;;3554321;40;20724;-53
2021/05/16 00:45:28;;;;;;;8.80;8.50;;;24.60;62.80;;;;;;3554463;40;21050;-52
2021/05/16 00:47:58;;;;;;;9.20;8.90;;;24.60;62.70;;;;;;3555125;40;20558;-54
2021/05/16 00:50:27;;;;;;;9.00;8.70;;;24.60;62.80;;;;;;3554687;40;20482;-52
2021/05/16 00:52:56;;;;;;;9.40;9.10;;;24.60;62.80;;;;;;3554813;40;21059;-54
2021/05/16 00:55:24;;;;;;;9.30;9.00;;;24.60;62.60;;;;;;3554138;40;20510;-54
2021/05/16 00:57:51;;;;;;;9.75;9.45;;;24.60;62.60;;;;;;3544065;40;20500;-53
2021/05/16 01:00:32;;;;;;;8.80;8.50;;;24.60;62.50;;;;;;3544795;40;20246;-56
2021/05/16 01:03:07;;;;;;;9.00;8.70;;;24.60;62.50;;;;;;3554368;40;20494;-53
2021/05/16 01:05:36;;;;;;;9.83;9.33;;;24.60;62.50;;;;;;3554473;40;20486;-55
2021/05/16 01:08:05;;;;;;;9.50;9.10;;;24.60;62.60;;;;;;3553934;40;20496;-52
2021/05/16 01:10:34;;;;;;;9.70;9.10;;;24.60;62.40;;;;;;3544726;40;21158;-54
2021/05/16 01:13:06;;;;;;;9.02;8.73;;;24.60;62.40;;;;;;3554312;40;20465;-52
2021/05/16 01:15:36;;;;;;;9.43;9.07;;;24.60;62.30;;;;;;3555071;40;20252;-53
2021/05/16 01:18:04;;;;;;;9.20;8.80;;;24.60;62.30;;;;;;3552140;40;20507;-55
2021/05/16 01:20:33;;;;;;;9.40;9.00;;;24.60;62.30;;;;;;3554721;40;20711;-54
2021/05/16 01:23:04;;;;;;;9.60;9.10;;;24.60;62.30;;;;;;3554588;40;20838;-52
2021/05/16 01:25:34;;;;;;;9.50;8.90;;;24.60;62.30;;;;;;3554469;40;20491;-52
2021/05/16 01:28:06;;;;;;;9.50;9.20;;;24.60;62.30;;;;;;3554228;40;20535;-54
2021/05/16 01:30:34;;;;;;;10.00;9.40;;;24.60;62.20;;;;;;3554059;40;20485;-53
2021/05/16 01:33:03;;;;;;;9.43;9.13;;;24.60;62.20;;;;;;3554616;40;20481;-51
2021/05/16 01:35:32;;;;;;;9.40;9.10;;;24.60;62.10;;;;;;3553236;40;20485;-51
2021/05/16 01:38:01;;;;;;;9.40;9.10;;;24.60;62.00;;;;;;3553772;40;20598;-53
2021/05/16 01:40:32;;;;;;;9.80;9.40;;;24.60;62.10;;;;;;3554122;40;20485;-54
2021/05/16 01:43:09;;;;;;;9.37;8.97;;;24.60;62.20;;;;;;3552177;40;20884;-52
2021/05/16 01:45:36;;;;;;;9.80;9.30;;;24.60;61.90;;;;;;3554365;40;20476;-51
2021/05/16 01:48:08;;;;;;;8.60;8.33;;;24.60;61.90;;;;;;3553535;40;20541;-52
2021/05/16 01:50:38;;;;;;;9.13;8.83;;;24.60;61.90;;;;;;3554318;40;20494;-51
2021/05/16 01:53:08;;;;;;;9.30;9.00;;;24.60;62.00;;;;;;3554290;40;20710;-55
2021/05/16 01:55:36;;;;;;;9.03;8.73;;;24.60;61.80;;;;;;3554646;40;20629;-52
2021/05/16 01:58:05;;;;;;;9.37;9.07;;;24.60;61.70;;;;;;3556003;40;20696;-53
2021/05/16 02:00:33;;;;;;;9.30;8.90;;;24.60;61.90;;;;;;3555990;40;20514;-54
2021/05/16 02:03:06;;;;;;;9.27;8.87;;;24.60;61.70;;;;;;3556113;40;20607;-53
2021/05/16 02:05:40;;;;;;;9.23;8.93;;;24.60;61.70;;;;;;3557321;40;20490;-53
2021/05/16 02:08:09;;;;;;;9.13;8.60;;;24.60;61.80;;;;;;3556603;40;20808;-49
2021/05/16 02:10:41;;;;;;;9.00;8.70;;;24.60;61.90;;;;;;3556641;40;20505;-55
2021/05/16 02:13:12;;;;;;;9.52;9.13;;;24.60;62.20;;;;;;3556134;40;20870;-54
2021/05/16 02:15:47;;;;;;;9.40;9.10;;;24.60;62.20;;;;;;3556342;40;20236;-52
2021/05/16 02:18:16;;;;;;;9.83;9.40;;;24.60;62.10;;;;;;3557430;40;20490;-52
2021/05/16 02:20:45;;;;;;;9.93;9.53;;;24.60;62.10;;;;;;3547816;40;20476;-51
2021/05/16 02:23:13;;;;;;;9.40;8.90;;;24.60;62.00;;;;;;3547738;40;20504;-51
2021/05/16 02:25:43;;;;;;;9.37;9.00;;;24.60;62.00;;;;;;3546890;40;20536;-51
2021/05/16 02:28:19;;;;;;;9.30;8.90;;;24.60;62.00;;;;;;3547033;40;20487;-53
2021/05/16 02:30:48;;;;;;;9.30;8.90;;;24.60;62.10;;;;;;3546723;40;20481;-53
2021/05/16 02:33:20;;;;;;;10.10;9.33;;;24.60;62.20;;;;;;3546031;40;20496;-52
2021/05/16 02:35:48;;;;;;;9.40;9.10;;;24.60;62.20;;;;;;3547235;40;20484;-52
2021/05/16 02:38:16;;;;;;;9.30;8.90;;;24.60;62.20;;;;;;3546438;40;20496;-53
2021/05/16 02:40:44;;;;;;;8.87;8.57;;;24.60;62.20;;;;;;3547178;40;21090;-55
2021/05/16 02:43:11;;;;;;;9.20;8.77;;;24.60;62.20;;;;;;3547251;40;20942;-53
2021/05/16 02:45:38;;;;;;;9.60;9.20;;;24.60;62.20;;;;;;3546211;40;20493;-53
2021/05/16 02:48:11;;;;;;;9.10;8.70;;;24.60;62.20;;;;;;3546756;40;20788;-53
2021/05/16 02:50:38;;;;;;;9.10;8.70;;;24.60;62.20;;;;;;3546339;40;20479;-56
2021/05/16 02:53:07;;;;;;;9.43;9.03;;;24.60;62.20;;;;;;3555150;40;20963;-53
2021/05/16 02:55:42;;;;;;;8.63;8.33;;;24.60;62.20;;;;;;3556760;40;20485;-56
2021/05/16 02:58:11;;;;;;;9.30;8.90;;;24.60;62.20;;;;;;3556916;40;20708;-53
2021/05/16 03:00:47;;;;;;;9.30;8.80;;;24.60;62.20;;;;;;3556293;40;20491;-52
2021/05/16 03:03:17;;;;;;;8.67;8.27;;;24.60;62.30;;;;;;3556809;40;20492;-52
2021/05/16 03:05:44;;;;;;;8.37;8.07;;;24.60;62.30;;;;;;3557157;40;20844;-54
2021/05/16 03:08:13;;;;;;;9.40;9.10;;;24.60;62.30;;;;;;3556152;40;20487;-52
2021/05/16 03:10:44;;;;;;;9.70;9.30;;;24.60;62.20;;;;;;3553875;40;20495;-52
2021/05/16 03:13:12;;;;;;;9.60;9.17;;;24.60;62.30;;;;;;3554085;40;20482;-52
2021/05/16 03:15:41;;;;;;;9.37;9.00;;;24.60;62.30;;;;;;3555786;40;20915;-52
2021/05/16 03:18:09;;;;;;;9.10;8.80;;;24.60;62.30;;;;;;3545774;40;20506;-55
2021/05/16 03:20:39;;;;;;;9.67;9.17;;;24.60;62.40;;;;;;3545480;40;20479;-52
2021/05/16 03:23:07;;;;;;;9.50;9.20;;;24.60;62.40;;;;;;3556282;40;20531;-55
2021/05/16 03:25:37;;;;;;;9.70;9.40;;;24.60;62.30;;;;;;3546082;40;20491;-55
2021/05/16 03:28:06;;;;;;;9.83;9.43;;;24.60;62.50;;;;;;3545739;40;20540;-54
2021/05/16 03:30:35;;;;;;;9.30;8.90;;;24.60;62.40;;;;;;3553019;40;20510;-56
2021/05/16 03:33:03;;;;;;;9.40;9.10;;;24.60;62.30;;;;;;3554520;40;20809;-55
2021/05/16 03:35:31;;;;;;;9.60;9.20;;;24.60;62.30;;;;;;3555016;40;20501;-53
2021/05/16 03:37:58;;;;;;;9.40;9.10;;;24.60;62.40;;;;;;3554297;40;20484;-52
2021/05/16 03:40:26;;;;;;;9.98;9.68;;;24.60;62.50;;;;;;3554376;40;20252;-52
2021/05/16 03:42:53;;;;;;;10.03;9.53;;;24.60;62.50;;;;;;3555610;40;20649;-54
2021/05/16 03:45:21;;;;;;;10.10;9.80;;;24.60;62.40;;;;;;3554149;40;20568;-55
2021/05/16 03:47:49;;;;;;;9.77;9.37;;;24.60;62.40;;;;;;3551054;40;20542;-54
2021/05/16 03:50:17;;;;;;;9.47;9.10;;;24.60;62.20;;;;;;3554271;40;20476;-55
2021/05/16 03:52:45;;;;;;;9.75;9.45;;;24.60;62.20;;;;;;3554987;40;20479;-54
2021/05/16 03:55:13;;;;;;;9.87;9.57;;;24.60;62.20;;;;;;3555172;40;20687;-55
2021/05/16 03:57:44;;;;;;;9.20;8.90;;;24.60;62.20;;;;;;3553567;40;20488;-52
2021/05/16 04:00:14;;;;;;;9.67;9.30;;;24.70;62.30;;;;;;3554147;40;20483;-54
2021/05/16 04:02:43;;;;;;;9.47;9.17;;;24.70;62.30;;;;;;3554737;40;20493;-51
2021/05/16 04:05:12;;;;;;;9.47;9.17;;;24.70;62.20;;;;;;3554405;40;20493;-52
2021/05/16 04:07:41;;;;;;;9.40;9.00;;;24.70;62.20;;;;;;3554277;40;20486;-54
2021/05/16 04:10:09;;;;;;;9.37;9.07;;;24.80;62.20;;;;;;3554495;40;20485;-53
2021/05/16 04:12:37;;;;;;;9.70;9.20;;;24.80;62.20;;;;;;3554079;40;20507;-55
2021/05/16 04:15:10;;;;;;;10.37;9.97;;;24.80;62.10;;;;;;3554414;40;20246;-54
2021/05/16 04:17:37;;;;;;;10.00;9.60;;;24.80;62.20;;;;;;3554326;40;20860;-54
2021/05/16 04:20:06;;;;;;;9.70;9.23;;;24.80;62.10;;;;;;3554752;40;20464;-51
2021/05/16 04:22:35;;;;;;;9.87;9.50;;;24.80;62.10;;;;;;3553996;40;20486;-54
2021/05/16 04:25:03;;;;;;;10.07;9.60;;;24.90;62.10;;;;;;3554441;40;20535;-56
2021/05/16 04:27:30;;;;;;;10.43;10.03;;;24.90;62.00;;;;;;3554393;40;20363;-56
2021/05/16 04:29:58;;;;;;;9.70;9.30;;;24.90;61.90;;;;;;3553769;40;20486;-53
2021/05/16 04:32:25;;;;;;;10.20;9.80;;;24.90;61.80;;;;;;3553916;40;20485;-54
2021/05/16 04:34:53;;;;;;;9.50;9.20;;;24.90;61.70;;;;;;3553882;40;20523;-51
2021/05/16 04:37:20;;;;;;;10.47;10.07;;;25.00;61.80;;;;;;3554165;40;21037;-53
2021/05/16 04:39:47;;;;;;;9.90;9.50;;;25.00;61.80;;;;;;3554829;40;20516;-55
2021/05/16 04:42:14;;;;;;;9.63;9.23;;;25.00;61.80;;;;;;3558895;40;20497;-52
2021/05/16 04:44:41;;;;;;;9.70;9.40;;;25.00;61.80;;;;;;3563574;40;20485;-51
2021/05/16 04:47:09;;;;;;;9.90;9.40;;;25.00;61.70;;;;;;3563656;40;20879;-53
2021/05/16 04:49:37;;;;;;;10.40;10.00;;;25.00;61.70;;;;;;3563597;40;20503;-54
2021/05/16 04:52:05;;;;;;;10.63;10.13;;;25.00;61.60;;;;;;3563965;40;20572;-54
2021/05/16 04:54:32;;;;;;;10.33;9.83;;;25.00;61.60;;;;;;3554891;40;20577;-53
2021/05/16 04:57:02;;;;;;;9.93;9.53;;;25.10;61.70;;;;;;3564161;40;20999;-51
2021/05/16 04:59:32;;;;;;;9.77;9.47;;;25.10;61.70;;;;;;3563949;40;20502;-52
2021/05/16 05:02:00;;;;;;;10.23;9.93;;;25.10;61.70;;;;;;3563895;40;20621;-54
2021/05/16 05:04:26;;;;;;;11.13;10.53;;;25.10;61.50;;;;;;3563489;40;20606;-55
2021/05/16 05:06:54;;;;;;;9.80;9.40;;;25.10;61.50;;;;;;3563416;40;20492;-52
2021/05/16 05:09:22;;;;;;;10.17;9.80;;;25.20;61.50;;;;;;3561603;40;20495;-55
2021/05/16 05:11:52;;;;;;;9.67;9.37;;;25.20;61.40;;;;;;3562472;40;20948;-55
2021/05/16 05:14:20;;;;;;;9.73;9.43;;;25.20;61.40;;;;;;3561714;40;21132;-52
2021/05/16 05:16:48;;;;;;;10.23;9.93;;;25.20;61.50;;;;;;3562081;40;20485;-54
2021/05/16 05:19:14;;;;;;;10.48;10.07;;;25.20;61.40;;;;;;3563179;40;20576;-54
2021/05/16 05:21:43;;;;;;;9.83;9.53;;;25.20;62.20;;;;;;3560856;40;20230;-51
2021/05/16 05:24:10;;;;;;;9.90;9.60;;;25.20;61.40;;;;;;3563932;40;20479;-55
2021/05/16 05:26:37;;;;;;;9.80;9.40;;;25.20;61.30;;;;;;3554187;40;20484;-53
2021/05/16 05:29:03;;;;;;;10.25;9.85;;;25.20;61.30;;;;;;3549227;40;20498;-56
2021/05/16 05:31:32;;;;;;;10.07;9.77;;;25.30;61.40;;;;;;3552236;40;20264;-51
2021/05/16 05:33:59;;;;;;;10.00;9.70;;;25.30;61.30;;;;;;3551795;40;20270;-54
2021/05/16 05:36:29;;;;;;;10.10;9.70;;;25.30;61.30;;;;;;3552712;40;20571;-51
2021/05/16 05:38:55;;;;;;;10.00;9.70;;;25.30;61.30;;;;;;3552233;40;20587;-55
2021/05/16 05:41:23;;;;;;;10.13;9.80;;;25.30;61.40;;;;;;3552262;40;20495;-52
2021/05/16 05:43:50;;;;;;;10.27;9.97;;;25.40;61.40;;;;;;3553595;40;20487;-53
2021/05/16 05:46:18;;;;;;;10.27;9.85;;;25.40;61.40;;;;;;3551812;40;20488;-54
2021/05/16 05:48:46;;;;;;;10.20;9.80;;;25.40;61.30;;;;;;3552804;40;20706;-55
2021/05/16 05:51:13;;;;;;;9.90;9.60;;;25.40;61.40;;;;;;3552354;40;21088;-53
2021/05/16 05:53:41;;;;;;;10.10;9.70;;;25.40;61.40;;;;;;3554739;40;21312;-53
2021/05/16 05:56:10;;;;;;;10.00;9.60;;;25.40;61.30;;;;;;3562755;40;20509;-53
2021/05/16 05:58:39;;;;;;;9.93;9.53;;;25.40;61.40;;;;;;3560976;40;20485;-52
2021/05/16 06:01:06;;;;;;;9.73;9.43;;;25.40;61.50;;;;;;3561986;40;20826;-53
2021/05/16 06:03:33;;;;;;;9.90;9.60;;;25.40;61.40;;;;;;3562646;40;20290;-55
2021/05/16 06:06:02;;;;;;;9.87;9.57;;;25.40;61.40;;;;;;3562212;40;20495;-52
2021/05/16 06:08:29;;;;;;;10.00;9.70;;;25.40;61.50;;;;;;3562064;40;20504;-53
2021/05/16 06:10:57;;;;;;;10.10;9.70;;;25.40;61.40;;;;;;3562961;40;20481;-55
2021/05/16 06:13:25;;;;;;;9.20;8.90;;;25.40;61.50;;;;;;3561790;40;20971;-53
2021/05/16 06:15:52;;;;;;;9.80;9.40;;;25.40;61.60;;;;;;3561428;40;20485;-55
2021/05/16 06:18:22;;;;;;;10.07;9.77;;;25.40;61.50;;;;;;3557664;40;20514;-53
2021/05/16 06:20:48;;;;;;;10.23;9.82;;;25.50;61.70;;;;;;3552051;40;20610;-54
2021/05/16 06:23:17;;;;;;;10.07;9.67;;;25.50;61.80;;;;;;3543115;40;20265;-52
2021/05/16 06:25:45;;;;;;;10.20;9.57;;;25.50;61.80;;;;;;3549678;40;20500;-51
2021/05/16 06:28:13;;;;;;;9.97;9.67;;;25.50;61.80;;;;;;3551554;40;20483;-52
2021/05/16 06:30:41;;;;;;;9.97;9.57;;;25.50;61.80;;;;;;3551809;40;20760;-51
2021/05/16 06:33:07;;;;;;;10.27;9.87;;;25.50;61.80;;;;;;3551059;40;20558;-52
2021/05/16 06:35:35;;;;;;;10.10;9.80;;;25.60;62.00;;;;;;3551075;40;20536;-53
2021/05/16 06:38:02;;;;;;;9.80;9.30;;;25.60;62.00;;;;;;3549223;40;20877;-55
2021/05/16 06:40:32;;;;;;;10.00;9.50;;;25.60;62.10;;;;;;3551110;40;20488;-55
2021/05/16 06:43:01;;;;;;;10.20;9.70;;;25.50;62.00;;;;;;3550730;40;21019;-55
2021/05/16 06:45:28;;;;;;;10.63;10.03;;;25.50;62.10;;;;;;3553218;40;20479;-55
2021/05/16 06:47:55;;;;;;;10.45;10.05;;;25.60;62.20;;;;;;3551824;40;20559;-53
2021/05/16 06:50:23;;;;;;;10.03;9.63;;;25.50;62.20;;;;;;3552234;40;20240;-53
2021/05/16 06:52:50;;;;;;;10.37;9.97;;;25.50;62.20;;;;;;3543048;40;21189;-55
2021/05/16 06:55:17;;;;;;;10.40;9.97;;;25.50;62.30;;;;;;3550777;40;20588;-54
2021/05/16 06:57:45;;;;;;;9.60;9.30;;;25.60;62.30;;;;;;3551761;40;20727;-54
2021/05/16 07:00:14;;;;;;;9.50;9.20;;;25.50;62.20;;;;;;3560297;40;20465;-53
2021/05/16 07:02:41;;;;;;;10.20;9.70;;;25.50;62.30;;;;;;3561856;40;20760;-52
2021/05/16 07:05:10;;;;;;;11.93;10.13;;;25.50;62.40;;;;;;3562279;40;20494;-54
2021/05/16 07:07:39;;;;;;;10.10;9.53;;;25.50;62.60;;;;;;3561863;40;20553;-53
2021/05/16 07:10:08;;;;;;;10.27;9.87;;;25.50;62.50;;;;;;3561750;40;20493;-54
2021/05/16 07:12:36;;;;;;;10.20;9.80;;;25.50;62.60;;;;;;3561868;40;20593;-55
2021/05/16 07:15:13;;;;;;;9.77;9.30;;;25.50;62.60;;;;;;3562257;40;20786;-52
2021/05/16 07:17:40;;;;;;;10.33;9.83;;;25.50;62.60;;;;;;3562436;40;20478;-56
2021/05/16 07:20:10;;;;;;;9.93;9.47;;;25.50;62.60;;;;;;3561289;40;20540;-53
2021/05/16 07:22:38;;;;;;;10.27;9.77;;;25.50;62.60;;;;;;3562903;40;20671;-55
2021/05/16 07:25:06;;;;;;;10.50;10.13;;;25.50;62.70;;;;;;3562920;40;20541;-55
2021/05/16 07:27:34;;;;;;;10.55;10.13;;;25.50;62.70;;;;;;3562336;40;20640;-54
2021/05/16 07:30:07;;;;;;;9.93;9.60;;;25.50;62.70;;;;;;3562623;40;20576;-54
2021/05/16 07:32:34;;;;;;;10.20;9.70;;;25.50;62.80;;;;;;3562207;40;20244;-53
2021/05/16 07:35:03;;;;;;;10.80;10.20;;;25.50;62.80;;;;;;3562643;40;20496;-53
2021/05/16 07:37:29;;;;;;;10.70;10.30;;;25.50;62.80;;;;;;3563081;40;20484;-52
2021/05/16 07:39:58;;;;;;;10.50;10.10;;;25.50;62.80;;;;;;3562520;40;20824;-55
2021/05/16 07:42:26;;;;;;;11.00;10.60;;;25.50;62.90;;;;;;3563049;40;20860;-55
2021/05/16 07:44:52;;;;;;;11.00;10.10;;;25.50;62.90;;;;;;3563094;40;21059;-52
2021/05/16 07:47:20;;;;;;;10.97;10.43;;;25.50;62.20;;;;;;3561703;40;20901;-54
2021/05/16 07:49:47;;;;;;;10.77;10.18;;;25.10;58.50;;;;;;3561921;40;20825;-57
2021/05/16 07:52:13;;;;;;;10.73;10.33;;;25.00;59.90;;;;;;3562770;40;20255;-55
2021/05/16 07:54:40;;;;;;;10.97;10.57;;;25.00;61.20;;;;;;3560508;40;20505;-55
2021/05/16 07:57:08;;;;;;;11.07;10.57;;;25.00;60.40;;;;;;3562228;40;20487;-56
2021/05/16 07:59:36;;;;;;;20.53;11.63;;;25.00;61.40;;;;;;3562109;40;20504;-55
2021/05/16 08:02:05;;;;;;;11.90;10.93;;;25.10;62.10;;;;;;3561454;40;20571;-55
2021/05/16 08:04:36;;;;;;;12.10;11.40;;;25.10;62.60;;;;;;3562541;40;20481;-55
2021/05/16 08:07:03;;;;;;;11.13;10.73;;;25.20;62.80;;;;;;3562556;40;20537;-55
2021/05/16 08:09:30;;;;;;;11.93;11.10;;;25.20;63.00;;;;;;3561755;40;20511;-56
2021/05/16 08:11:57;;;;;;;12.20;11.13;;;25.20;63.10;;;;;;3561483;40;20835;-54
2021/05/16 08:14:28;;;;;;;11.43;10.70;;;25.20;63.00;;;;;;3561537;40;20243;-53
2021/05/16 08:16:54;;;;;;;11.60;10.80;;;25.20;63.00;;;;;;3562708;40;20478;-55
2021/05/16 08:19:21;;;;;;;11.10;10.50;;;25.30;63.10;;;;;;3553648;40;20528;-54
2021/05/16 08:21:50;;;;;;;11.80;10.87;;;25.20;63.10;;;;;;3551185;40;20525;-54
2021/05/16 08:24:19;;;;;;;10.93;10.43;;;25.20;63.10;;;;;;3543186;40;20819;-53
2021/05/16 08:26:47;;;;;;;11.17;10.57;;;25.20;63.10;;;;;;3552872;40;20499;-56
2021/05/16 08:29:14;;;;;;;11.07;10.53;;;25.20;63.10;;;;;;3552251;40;20505;-54
2021/05/16 08:31:41;;;;;;;12.20;11.67;;;25.20;63.10;;;;;;3551988;40;20556;-55
2021/05/16 08:34:09;;;;;;;11.63;10.97;;;25.20;63.10;;;;;;3551343;40;20506;-56
2021/05/16 08:36:38;;;;;;;11.70;10.90;;;25.20;63.20;;;;;;3545688;40;21168;-51
2021/05/16 08:39:09;;;;;;;10.10;9.33;;;25.20;63.10;;;;;;3552236;40;20502;-54
2021/05/16 08:41:49;;;;;;;11.17;10.60;;;25.20;63.10;;;;;;3552874;40;20486;-55
2021/05/16 08:44:20;;;;;;;10.07;9.43;;;25.20;63.10;;;;;;3552829;40;20527;-51
2021/05/16 08:46:47;;;;;;;10.40;10.00;;;25.20;63.00;;;;;;3552735;40;20553;-54
2021/05/16 08:49:18;;;;;;;10.50;9.80;;;25.10;58.90;;;;;;3550907;40;20983;-56
2021/05/16 08:51:49;;;;;;;10.20;9.80;;;24.90;59.20;;;;;;3551014;40;20519;-52
2021/05/16 08:54:18;;;;;;;10.70;10.20;;;24.90;60.80;;;;;;3541800;40;20642;-55
2021/05/16 08:56:50;;;;;;;10.70;10.10;;;25.00;61.80;;;;;;3549993;40;20522;-55
2021/05/16 08:59:20;;;;;;;11.00;10.30;;;25.00;62.20;;;;;;3551074;40;20488;-56
2021/05/16 09:01:47;;;;;;;12.23;11.43;;;25.00;62.40;;;;;;3537707;40;20490;-55
2021/05/16 09:04:28;;;;;;;11.53;10.60;;;25.10;62.60;;;;;;3537208;40;20566;-51
2021/05/16 09:06:56;;;;;;;10.57;9.97;;;25.10;62.80;;;;;;3542410;40;20486;-56
2021/05/16 09:09:31;;;;;;;10.47;9.93;;;25.10;62.80;;;;;;3552147;40;20514;-55
2021/05/16 09:12:00;;;;;;;10.60;10.23;;;25.10;62.80;;;;;;3550645;40;20505;-52
2021/05/16 09:14:58;;;;;;;11.20;10.30;;;25.10;62.90;;;;;;3550469;40;20974;-54
2021/05/16 09:17:28;;;;;;;10.37;9.67;;;25.10;63.10;;;;;;3533043;40;21014;-55
2021/05/16 09:19:57;;;;;;;9.90;9.43;;;25.10;62.90;;;;;;3550364;40;20494;-51
2021/05/16 09:22:36;;;;;;;10.03;9.53;;;25.10;63.10;;;;;;3551111;40;20500;-54
2021/05/16 09:25:13;;;;;;;9.67;9.30;;;25.10;63.20;;;;;;3550824;40;20486;-55
2021/05/16 09:27:44;;;;;;;11.27;10.57;;;25.10;63.20;;;;;;3551310;40;20553;-54
2021/05/16 09:30:33;;;;;;;12.20;11.20;;;25.10;63.30;;;;;;3551857;40;20602;-52
2021/05/16 09:33:02;;;;;;;11.80;10.90;;;25.10;63.40;;;;;;3541672;40;20679;-53
2021/05/16 09:35:36;;;;;;;25.03;22.53;;;25.10;63.40;;;;;;3551032;40;20476;-54
2021/05/16 09:38:10;;;;;;;21.97;20.27;;;25.10;63.80;;;;;;3550662;40;20598;-53
2021/05/16 09:40:41;;;;;;;19.10;17.23;;;25.10;64.30;;;;;;3551108;40;20486;-55
2021/05/16 09:43:16;;;;;;;15.97;14.67;;;25.10;64.60;;;;;;3551742;40;20249;-56
2021/05/16 09:45:49;;;;;;;17.47;15.40;;;25.10;64.80;;;;;;3549645;40;20474;-54
2021/05/16 09:48:49;;;;;;;16.27;14.67;;;25.10;65.00;;;;;;3559496;40;20485;-54
2021/05/16 09:51:19;;;;;;;13.48;12.50;;;25.10;65.10;;;;;;3557839;40;20487;-55
2021/05/16 09:54:04;;;;;;;10.77;10.07;;;25.10;64.40;;;;;;3557823;40;20512;-55
2021/05/16 09:56:34;;;;;;;10.27;9.77;;;24.80;59.20;;;;;;3559139;40;20575;-54
2021/05/16 09:59:03;;;;;;;10.97;10.27;;;24.50;58.20;;;;;;3558878;40;20756;-55
2021/05/16 10:01:31;;;;;;;11.50;9.70;;;24.20;58.60;;;;;;3559635;40;20527;-55
2021/05/16 10:04:00;;;;;;;10.50;10.00;;;23.90;58.40;;;;;;3560396;40;20486;-55
2021/05/16 10:06:29;;;;;;;10.97;10.47;;;23.80;59.20;;;;;;3560655;40;20483;-53
2021/05/16 10:08:57;;;;;;;11.10;10.60;;;23.60;58.50;;;;;;3560759;40;20494;-55
2021/05/16 10:11:27;;;;;;;9.00;8.70;;;23.40;59.00;;;;;;3559353;40;20575;-53
2021/05/16 10:14:03;;;;;;;9.60;9.20;;;23.20;59.20;;;;;;3558663;40;20485;-55
2021/05/16 10:16:38;;;;;;;9.93;9.33;;;23.10;59.70;;;;;;3559502;40;20877;-53
2021/05/16 10:19:07;;;;;;;9.30;9.00;;;23.10;59.20;;;;;;3560151;40;20488;-50
2021/05/16 10:21:34;;;;;;;9.50;8.53;;;23.10;59.20;;;;;;3560633;40;20818;-56
2021/05/16 10:24:10;;;;;;;9.77;8.97;;;22.90;58.40;;;;;;3554917;40;20536;-54
2021/05/16 10:26:38;;;;;;;9.33;8.93;;;22.80;58.70;;;;;;3542636;40;20486;-52
2021/05/16 10:29:08;;;;;;;9.67;9.10;;;22.70;59.40;;;;;;3552779;40;20478;-52
2021/05/16 10:31:52;;;;;;;9.70;9.30;;;22.70;59.40;;;;;;3552396;40;20501;-54
2021/05/16 10:34:43;;;;;;;11.57;10.57;;;22.60;59.30;;;;;;3551812;40;20517;-53
2021/05/16 10:37:35;;;;;;;9.80;9.30;;;22.50;62.70;;;;;;3550986;40;20504;-54
2021/05/16 10:40:05;;;;;;;9.87;9.47;;;22.30;63.10;;;;;;3552327;40;20839;-53
2021/05/16 10:42:36;;;;;;;9.73;8.90;;;22.20;63.50;;;;;;3550894;40;20483;-53
2021/05/16 10:45:30;;;;;;;10.30;9.40;;;22.20;66.50;;;;;;3550650;40;20790;-52
2021/05/16 10:48:06;;;;;;;10.60;9.90;;;22.20;68.50;;;;;;3550640;40;20506;-55
2021/05/16 10:51:01;;;;;;;10.13;9.47;;;22.20;69.10;;;;;;3551343;40;21091;-55
2021/05/16 10:53:36;;;;;;;9.37;9.00;;;22.20;66.10;;;;;;3550751;40;20524;-53
2021/05/16 10:56:11;;;;;;;9.50;9.00;;;22.20;64.10;;;;;;3550905;40;20501;-55
2021/05/16 10:58:48;;;;;;;8.80;8.40;;;22.00;65.00;;;;;;3550248;40;20923;-55
2021/05/16 11:01:17;;;;;;;9.47;9.03;;;21.90;65.50;;;;;;3551280;40;20904;-52
2021/05/16 11:03:49;;;;;;;9.63;9.23;;;21.90;64.60;;;;;;3551138;40;20502;-55
2021/05/16 11:06:19;;;;;;;10.77;10.37;;;21.90;65.50;;;;;;3550523;40;20488;-52
2021/05/16 11:09:13;;;;;;;11.10;10.60;;;21.90;63.30;;;;;;3552028;40;20485;-53
2021/05/16 11:11:56;;;;;;;10.20;9.70;;;21.90;61.50;;;;;;3553961;40;20482;-52
2021/05/16 11:14:26;;;;;;;9.80;9.40;;;22.00;61.80;;;;;;3554693;40;20582;-54
2021/05/16 11:16:57;;;;;;;10.67;9.97;;;22.10;60.50;;;;;;3554383;40;20496;-53
2021/05/16 11:19:26;;;;;;;10.20;9.73;;;22.20;60.60;;;;;;3554313;40;20564;-54
2021/05/16 11:21:53;;;;;;;9.30;9.00;;;22.30;60.70;;;;;;3553349;40;20969;-53
2021/05/16 11:24:45;;;;;;;9.70;9.30;;;22.40;60.50;;;;;;3553052;40;20532;-55
2021/05/16 11:27:15;;;;;;;11.43;10.60;;;22.50;58.90;;;;;;3561848;40;20516;-54
2021/05/16 11:29:43;;;;;;;10.40;9.90;;;22.50;57.70;;;;;;3562873;40;20473;-54
2021/05/16 11:32:13;;;;;;;10.27;9.97;;;22.60;57.60;;;;;;3563090;40;20494;-55
2021/05/16 11:34:44;;;;;;;9.90;9.40;;;22.60;57.50;;;;;;3562531;40;20536;-55
2021/05/16 11:37:19;;;;;;;10.20;9.80;;;22.60;58.40;;;;;;3562593;40;20567;-52
2021/05/16 11:39:45;;;;;;;10.83;10.43;;;22.80;58.60;;;;;;3562104;40;20489;-55
2021/05/16 11:42:13;;;;;;;10.60;10.10;;;22.90;57.30;;;;;;3564073;40;20476;-53
2021/05/16 11:44:40;;;;;;;10.63;10.10;;;23.00;57.50;;;;;;3564314;40;20543;-54
2021/05/16 11:47:07;;;;;;;12.03;11.40;;;23.10;56.90;;;;;;3564513;40;20521;-54
2021/05/16 11:49:38;;;;;;;11.07;10.70;;;23.10;56.50;;;;;;3564820;40;20485;-51
2021/05/16 11:52:05;;;;;;;11.30;10.80;;;23.10;56.10;;;;;;3552004;40;20502;-54
2021/05/16 11:54:38;;;;;;;11.30;10.70;;;23.10;56.50;;;;;;3553314;40;20497;-54
2021/05/16 11:57:06;;;;;;;10.40;10.00;;;23.20;56.90;;;;;;3553780;40;20546;-52
2021/05/16 11:59:35;;;;;;;10.40;10.00;;;23.20;55.90;;;;;;3554655;40;20878;-51
2021/05/16 12:02:03;;;;;;;10.30;9.90;;;23.10;54.60;;;;;;3553565;40;20294;-53
2021/05/16 12:04:38;;;;;;;10.47;9.87;;;23.10;55.00;;;;;;3553137;40;20578;-53
2021/05/16 12:07:06;;;;;;;10.00;9.60;;;23.10;55.70;;;;;;3553083;40;20490;-51
2021/05/16 12:09:39;;;;;;;8.80;8.50;;;23.10;55.40;;;;;;3553358;40;20495;-53
2021/05/16 12:12:17;;;;;;;9.60;9.10;;;23.20;54.80;;;;;;3553215;40;20491;-52
2021/05/16 12:14:45;;;;;;;9.23;8.93;;;23.30;55.50;;;;;;3554496;40;21187;-54
2021/05/16 12:17:14;;;;;;;9.50;9.10;;;23.40;55.70;;;;;;3553872;40;20491;-53
2021/05/16 12:19:42;;;;;;;8.57;8.27;;;23.40;54.90;;;;;;3554457;40;20502;-53
2021/05/16 12:22:12;;;;;;;8.90;8.60;;;23.40;54.40;;;;;;3554041;40;20494;-51
2021/05/16 12:24:43;;;;;;;10.27;9.43;;;23.30;54.90;;;;;;3554011;40;20502;-54
2021/05/16 12:27:14;;;;;;;9.00;8.70;;;23.30;54.40;;;;;;3552878;40;20471;-55
2021/05/16 12:29:42;;;;;;;9.40;9.00;;;23.40;54.10;;;;;;3552735;40;20490;-53
2021/05/16 12:32:09;;;;;;;9.63;9.23;;;23.40;54.30;;;;;;3553928;40;20614;-53
2021/05/16 12:34:38;;;;;;;8.80;8.50;;;23.40;53.40;;;;;;3553007;40;21015;-53
2021/05/16 12:37:15;;;;;;;10.00;9.57;;;23.40;53.10;;;;;;3553571;40;21101;-55
2021/05/16 12:39:45;;;;;;;11.83;10.90;;;23.50;53.90;;;;;;3552911;40;20482;-53
2021/05/16 12:42:27;;;;;;;11.10;10.47;;;23.50;53.50;;;;;;3551919;40;20497;-55
2021/05/16 12:45:13;;;;;;;11.50;10.70;;;23.40;52.30;;;;;;3551935;40;21264;-51
2021/05/16 12:47:40;;;;;;;12.48;11.50;;;23.40;52.50;;;;;;3552472;40;20512;-53
2021/05/16 12:50:08;;;;;;;14.30;13.20;;;23.50;53.20;;;;;;3554162;40;20236;-52
2021/05/16 12:52:36;;;;;;;15.10;13.70;;;23.60;53.50;;;;;;3562691;40;20479;-54